sensor_id;sensor_type;location;lat;lon;timestamp;P1;durP1;ratioP1;P2;durP2;ratioP2
16900;SDS011;8567;52.540;6.434;2023-12-20T00:01:56;2.33;;;2.22;;
16900;SDS011;8567;52.540;6.434;2023-12-20T00:04:23;2.30;;;2.20;;
16900;SDS011;8567;52.540;6.434;2023-12-20T00:06:49;1.95;;;1.85;;
16900;SDS011;8567;52.540;6.434;2023-12-20T00:09:17;2.03;;;1.92;;
16900;SDS011;8567;52.540;6.434;2023-12-20T00:11:44;2.40;;;2.20;;
16900;SDS011;8567;52.540;6.434;2023-12-20T00:14:11;2.10;;;2.00;;
16900;SDS011;8567;52.540;6.434;2023-12-20T00:16:39;2.40;;;2.30;;
16900;SDS011;8567;52.540;6.434;2023-12-20T00:19:07;2.00;;;1.90;;
16900;SDS011;8567;52.540;6.434;2023-12-20T00:21:34;1.98;;;1.88;;
16900;SDS011;8567;52.540;6.434;2023-12-20T00:24:01;2.20;;;2.10;;
16900;SDS011;8567;52.540;6.434;2023-12-20T00:26:28;2.10;;;2.00;;
16900;SDS011;8567;52.540;6.434;2023-12-20T00:28:55;2.20;;;2.10;;
16900;SDS011;8567;52.540;6.434;2023-12-20T00:31:22;2.20;;;2.10;;
16900;SDS011;8567;52.540;6.434;2023-12-20T00:33:50;2.08;;;1.98;;
16900;SDS011;8567;52.540;6.434;2023-12-20T00:36:17;2.10;;;2.00;;
16900;SDS011;8567;52.540;6.434;2023-12-20T00:38:44;2.10;;;2.00;;
16900;SDS011;8567;52.540;6.434;2023-12-20T00:41:11;2.25;;;2.15;;
16900;SDS011;8567;52.540;6.434;2023-12-20T00:43:38;2.17;;;2.08;;
16900;SDS011;8567;52.540;6.434;2023-12-20T00:46:05;2.17;;;2.08;;
16900;SDS011;8567;52.540;6.434;2023-12-20T00:48:31;2.20;;;2.10;;
16900;SDS011;8567;52.540;6.434;2023-12-20T00:51:00;2.28;;;2.17;;
16900;SDS011;8567;52.540;6.434;2023-12-20T00:53:26;2.08;;;1.98;;
16900;SDS011;8567;52.540;6.434;2023-12-20T00:55:53;2.10;;;2.00;;
16900;SDS011;8567;52.540;6.434;2023-12-20T00:58:20;2.00;;;1.90;;
16900;SDS011;8567;52.540;6.434;2023-12-20T01:00:47;2.13;;;2.00;;
16900;SDS011;8567;52.540;6.434;2023-12-20T01:03:14;1.90;;;1.80;;
16900;SDS011;8567;52.540;6.434;2023-12-20T01:05:41;1.92;;;1.83;;
16900;SDS011;8567;52.540;6.434;2023-12-20T01:08:09;2.20;;;2.10;;
16900;SDS011;8567;52.540;6.434;2023-12-20T01:10:36;2.10;;;2.00;;
16900;SDS011;8567;52.540;6.434;2023-12-20T01:13:03;1.90;;;1.80;;
16900;SDS011;8567;52.540;6.434;2023-12-20T01:15:30;2.10;;;2.00;;
16900;SDS011;8567;52.540;6.434;2023-12-20T01:17:57;2.20;;;2.10;;
16900;SDS011;8567;52.540;6.434;2023-12-20T01:20:24;2.08;;;1.98;;
16900;SDS011;8567;52.540;6.434;2023-12-20T01:22:51;2.10;;;2.00;;
16900;SDS011;8567;52.540;6.434;2023-12-20T01:25:19;2.05;;;1.95;;
16900;SDS011;8567;52.540;6.434;2023-12-20T01:27:46;2.10;;;2.00;;
16900;SDS011;8567;52.540;6.434;2023-12-20T01:30:14;1.90;;;1.80;;
16900;SDS011;8567;52.540;6.434;2023-12-20T01:32:41;1.90;;;1.80;;
16900;SDS011;8567;52.540;6.434;2023-12-20T01:35:08;2.20;;;2.10;;
16900;SDS011;8567;52.540;6.434;2023-12-20T01:37:37;2.10;;;2.00;;
16900;SDS011;8567;52.540;6.434;2023-12-20T01:40:04;2.10;;;2.00;;
16900;SDS011;8567;52.540;6.434;2023-12-20T01:42:34;2.10;;;2.00;;
16900;SDS011;8567;52.540;6.434;2023-12-20T01:45:01;2.10;;;2.00;;
16900;SDS011;8567;52.540;6.434;2023-12-20T01:47:28;2.00;;;1.90;;
16900;SDS011;8567;52.540;6.434;2023-12-20T01:49:55;2.10;;;2.00;;
16900;SDS011;8567;52.540;6.434;2023-12-20T01:52:23;2.03;;;1.92;;
16900;SDS011;8567;52.540;6.434;2023-12-20T01:54:51;2.08;;;1.98;;
16900;SDS011;8567;52.540;6.434;2023-12-20T01:57:21;2.30;;;2.20;;
16900;SDS011;8567;52.540;6.434;2023-12-20T01:59:50;2.00;;;1.90;;
16900;SDS011;8567;52.540;6.434;2023-12-20T02:02:17;2.20;;;2.10;;
16900;SDS011;8567;52.540;6.434;2023-12-20T02:04:44;2.13;;;2.03;;
16900;SDS011;8567;52.540;6.434;2023-12-20T02:07:12;2.63;;;2.53;;
16900;SDS011;8567;52.540;6.434;2023-12-20T02:09:39;1.90;;;1.80;;
16900;SDS011;8567;52.540;6.434;2023-12-20T02:12:07;2.03;;;1.92;;
16900;SDS011;8567;52.540;6.434;2023-12-20T02:14:35;2.10;;;2.00;;
16900;SDS011;8567;52.540;6.434;2023-12-20T02:17:03;2.13;;;2.03;;
16900;SDS011;8567;52.540;6.434;2023-12-20T02:19:30;2.00;;;1.90;;
16900;SDS011;8567;52.540;6.434;2023-12-20T02:22:09;2.30;;;2.20;;
16900;SDS011;8567;52.540;6.434;2023-12-20T02:24:36;2.00;;;1.90;;
16900;SDS011;8567;52.540;6.434;2023-12-20T02:27:04;2.40;;;2.30;;
16900;SDS011;8567;52.540;6.434;2023-12-20T02:29:33;2.22;;;2.13;;
16900;SDS011;8567;52.540;6.434;2023-12-20T02:32:00;2.35;;;2.25;;
16900;SDS011;8567;52.540;6.434;2023-12-20T02:34:27;2.00;;;1.90;;
16900;SDS011;8567;52.540;6.434;2023-12-20T02:36:55;2.22;;;2.13;;
16900;SDS011;8567;52.540;6.434;2023-12-20T02:39:23;2.30;;;2.20;;
16900;SDS011;8567;52.540;6.434;2023-12-20T02:41:50;2.20;;;2.00;;
16900;SDS011;8567;52.540;6.434;2023-12-20T02:44:17;2.03;;;1.92;;
16900;SDS011;8567;52.540;6.434;2023-12-20T02:46:44;2.10;;;2.00;;
16900;SDS011;8567;52.540;6.434;2023-12-20T02:49:11;2.20;;;2.10;;
16900;SDS011;8567;52.540;6.434;2023-12-20T02:51:38;2.13;;;2.03;;
16900;SDS011;8567;52.540;6.434;2023-12-20T02:54:05;2.28;;;2.17;;
16900;SDS011;8567;52.540;6.434;2023-12-20T02:56:33;2.20;;;2.10;;
16900;SDS011;8567;52.540;6.434;2023-12-20T02:59:00;2.30;;;2.20;;
16900;SDS011;8567;52.540;6.434;2023-12-20T03:01:31;2.40;;;2.30;;
16900;SDS011;8567;52.540;6.434;2023-12-20T03:03:59;2.45;;;2.25;;
16900;SDS011;8567;52.540;6.434;2023-12-20T03:06:26;2.20;;;2.10;;
16900;SDS011;8567;52.540;6.434;2023-12-20T03:08:53;2.42;;;2.22;;
16900;SDS011;8567;52.540;6.434;2023-12-20T03:11:20;2.30;;;2.20;;
16900;SDS011;8567;52.540;6.434;2023-12-20T03:13:49;1.90;;;1.80;;
16900;SDS011;8567;52.540;6.434;2023-12-20T03:16:15;2.50;;;2.40;;
16900;SDS011;8567;52.540;6.434;2023-12-20T03:18:42;2.20;;;2.10;;
16900;SDS011;8567;52.540;6.434;2023-12-20T03:21:09;2.17;;;2.08;;
16900;SDS011;8567;52.540;6.434;2023-12-20T03:23:36;2.05;;;1.95;;
16900;SDS011;8567;52.540;6.434;2023-12-20T03:26:06;2.13;;;2.03;;
16900;SDS011;8567;52.540;6.434;2023-12-20T03:28:34;2.05;;;1.95;;
16900;SDS011;8567;52.540;6.434;2023-12-20T03:31:04;2.35;;;2.25;;
16900;SDS011;8567;52.540;6.434;2023-12-20T03:33:31;2.10;;;2.00;;
16900;SDS011;8567;52.540;6.434;2023-12-20T03:35:58;1.90;;;1.80;;
16900;SDS011;8567;52.540;6.434;2023-12-20T03:38:25;2.03;;;1.92;;
16900;SDS011;8567;52.540;6.434;2023-12-20T03:40:52;2.25;;;2.15;;
16900;SDS011;8567;52.540;6.434;2023-12-20T03:43:19;2.03;;;1.92;;
16900;SDS011;8567;52.540;6.434;2023-12-20T03:45:47;2.00;;;1.90;;
16900;SDS011;8567;52.540;6.434;2023-12-20T03:48:16;2.50;;;2.30;;
16900;SDS011;8567;52.540;6.434;2023-12-20T03:50:42;2.38;;;2.28;;
16900;SDS011;8567;52.540;6.434;2023-12-20T03:53:13;2.17;;;2.08;;
16900;SDS011;8567;52.540;6.434;2023-12-20T03:55:40;2.13;;;2.03;;
16900;SDS011;8567;52.540;6.434;2023-12-20T03:58:07;2.30;;;2.20;;
16900;SDS011;8567;52.540;6.434;2023-12-20T04:00:35;2.33;;;2.20;;
16900;SDS011;8567;52.540;6.434;2023-12-20T04:03:02;2.40;;;2.30;;
16900;SDS011;8567;52.540;6.434;2023-12-20T04:05:30;2.17;;;2.08;;
16900;SDS011;8567;52.540;6.434;2023-12-20T04:07:57;2.63;;;2.47;;
16900;SDS011;8567;52.540;6.434;2023-12-20T04:10:25;2.10;;;2.00;;
16900;SDS011;8567;52.540;6.434;2023-12-20T04:12:52;2.30;;;2.20;;
16900;SDS011;8567;52.540;6.434;2023-12-20T04:15:20;2.80;;;2.70;;
16900;SDS011;8567;52.540;6.434;2023-12-20T04:17:46;2.33;;;2.13;;
16900;SDS011;8567;52.540;6.434;2023-12-20T04:20:13;2.03;;;1.92;;
16900;SDS011;8567;52.540;6.434;2023-12-20T04:22:42;2.35;;;2.25;;
16900;SDS011;8567;52.540;6.434;2023-12-20T04:25:09;2.38;;;2.28;;
16900;SDS011;8567;52.540;6.434;2023-12-20T04:27:36;2.00;;;1.90;;
16900;SDS011;8567;52.540;6.434;2023-12-20T04:30:03;2.58;;;2.38;;
16900;SDS011;8567;52.540;6.434;2023-12-20T04:32:30;2.22;;;2.13;;
16900;SDS011;8567;52.540;6.434;2023-12-20T04:34:57;2.10;;;2.00;;
16900;SDS011;8567;52.540;6.434;2023-12-20T04:37:24;2.40;;;2.30;;
16900;SDS011;8567;52.540;6.434;2023-12-20T04:39:52;2.53;;;2.33;;
16900;SDS011;8567;52.540;6.434;2023-12-20T04:42:19;2.35;;;2.15;;
16900;SDS011;8567;52.540;6.434;2023-12-20T04:44:46;2.45;;;2.35;;
16900;SDS011;8567;52.540;6.434;2023-12-20T04:47:13;2.42;;;2.30;;
16900;SDS011;8567;52.540;6.434;2023-12-20T04:49:40;2.10;;;2.00;;
16900;SDS011;8567;52.540;6.434;2023-12-20T04:52:07;2.35;;;2.25;;
16900;SDS011;8567;52.540;6.434;2023-12-20T04:54:34;2.80;;;2.60;;
16900;SDS011;8567;52.540;6.434;2023-12-20T04:57:02;2.38;;;2.20;;
16900;SDS011;8567;52.540;6.434;2023-12-20T04:59:30;2.65;;;2.45;;
16900;SDS011;8567;52.540;6.434;2023-12-20T05:01:57;2.75;;;2.55;;
16900;SDS011;8567;52.540;6.434;2023-12-20T05:04:24;2.42;;;2.33;;
16900;SDS011;8567;52.540;6.434;2023-12-20T05:06:53;2.67;;;2.58;;
16900;SDS011;8567;52.540;6.434;2023-12-20T05:09:20;2.40;;;2.30;;
16900;SDS011;8567;52.540;6.434;2023-12-20T05:11:48;2.70;;;2.55;;
16900;SDS011;8567;52.540;6.434;2023-12-20T05:14:16;2.53;;;2.42;;
16900;SDS011;8567;52.540;6.434;2023-12-20T05:16:43;2.58;;;2.47;;
16900;SDS011;8567;52.540;6.434;2023-12-20T05:19:10;2.63;;;2.47;;
16900;SDS011;8567;52.540;6.434;2023-12-20T05:21:37;2.20;;;2.10;;
16900;SDS011;8567;52.540;6.434;2023-12-20T05:24:04;2.60;;;2.42;;
16900;SDS011;8567;52.540;6.434;2023-12-20T05:26:31;2.60;;;2.40;;
16900;SDS011;8567;52.540;6.434;2023-12-20T05:28:58;2.33;;;2.22;;
16900;SDS011;8567;52.540;6.434;2023-12-20T05:31:26;2.60;;;2.50;;
16900;SDS011;8567;52.540;6.434;2023-12-20T05:33:53;2.60;;;2.50;;
16900;SDS011;8567;52.540;6.434;2023-12-20T05:36:20;2.60;;;2.50;;
16900;SDS011;8567;52.540;6.434;2023-12-20T05:38:47;2.78;;;2.58;;
16900;SDS011;8567;52.540;6.434;2023-12-20T05:41:14;2.80;;;2.60;;
16900;SDS011;8567;52.540;6.434;2023-12-20T05:43:41;2.50;;;2.30;;
16900;SDS011;8567;52.540;6.434;2023-12-20T05:46:09;2.40;;;2.30;;
16900;SDS011;8567;52.540;6.434;2023-12-20T05:48:38;2.35;;;2.15;;
16900;SDS011;8567;52.540;6.434;2023-12-20T05:51:05;2.53;;;2.35;;
16900;SDS011;8567;52.540;6.434;2023-12-20T05:53:33;2.55;;;2.40;;
16900;SDS011;8567;52.540;6.434;2023-12-20T05:55:59;2.33;;;2.22;;
16900;SDS011;8567;52.540;6.434;2023-12-20T05:58:26;2.78;;;2.58;;
16900;SDS011;8567;52.540;6.434;2023-12-20T06:00:54;2.45;;;2.35;;
16900;SDS011;8567;52.540;6.434;2023-12-20T06:03:21;2.40;;;2.30;;
16900;SDS011;8567;52.540;6.434;2023-12-20T06:05:50;2.65;;;2.45;;
16900;SDS011;8567;52.540;6.434;2023-12-20T06:08:17;2.53;;;2.33;;
16900;SDS011;8567;52.540;6.434;2023-12-20T06:10:44;2.40;;;2.30;;
16900;SDS011;8567;52.540;6.434;2023-12-20T06:13:11;2.40;;;2.30;;
16900;SDS011;8567;52.540;6.434;2023-12-20T06:15:39;2.40;;;2.20;;
16900;SDS011;8567;52.540;6.434;2023-12-20T06:18:06;2.40;;;2.30;;
16900;SDS011;8567;52.540;6.434;2023-12-20T06:20:33;2.47;;;2.38;;
16900;SDS011;8567;52.540;6.434;2023-12-20T06:23:01;2.45;;;2.35;;
16900;SDS011;8567;52.540;6.434;2023-12-20T06:25:28;2.55;;;2.35;;
16900;SDS011;8567;52.540;6.434;2023-12-20T06:27:55;2.38;;;2.28;;
16900;SDS011;8567;52.540;6.434;2023-12-20T06:30:22;2.83;;;2.63;;
16900;SDS011;8567;52.540;6.434;2023-12-20T06:32:50;2.67;;;2.53;;
16900;SDS011;8567;52.540;6.434;2023-12-20T06:35:18;2.90;;;2.70;;
16900;SDS011;8567;52.540;6.434;2023-12-20T06:37:44;2.95;;;2.75;;
16900;SDS011;8567;52.540;6.434;2023-12-20T06:40:13;2.60;;;2.50;;
16900;SDS011;8567;52.540;6.434;2023-12-20T06:42:41;2.63;;;2.42;;
16900;SDS011;8567;52.540;6.434;2023-12-20T06:45:08;2.60;;;2.50;;
16900;SDS011;8567;52.540;6.434;2023-12-20T06:47:37;2.50;;;2.40;;
16900;SDS011;8567;52.540;6.434;2023-12-20T06:50:05;2.90;;;2.70;;
16900;SDS011;8567;52.540;6.434;2023-12-20T06:52:33;3.10;;;2.80;;
16900;SDS011;8567;52.540;6.434;2023-12-20T06:55:01;3.50;;;3.22;;
16900;SDS011;8567;52.540;6.434;2023-12-20T06:57:29;16.63;;;6.88;;
16900;SDS011;8567;52.540;6.434;2023-12-20T06:59:56;12.93;;;5.65;;
16900;SDS011;8567;52.540;6.434;2023-12-20T07:02:23;13.13;;;5.53;;
16900;SDS011;8567;52.540;6.434;2023-12-20T07:04:50;8.88;;;4.90;;
16900;SDS011;8567;52.540;6.434;2023-12-20T07:07:21;11.32;;;5.00;;
16900;SDS011;8567;52.540;6.434;2023-12-20T07:09:49;6.32;;;4.13;;
16900;SDS011;8567;52.540;6.434;2023-12-20T07:12:16;8.23;;;4.60;;
16900;SDS011;8567;52.540;6.434;2023-12-20T07:14:45;8.05;;;5.00;;
16900;SDS011;8567;52.540;6.434;2023-12-20T07:17:13;6.72;;;4.70;;
16900;SDS011;8567;52.540;6.434;2023-12-20T07:19:40;8.65;;;4.28;;
16900;SDS011;8567;52.540;6.434;2023-12-20T07:22:09;7.63;;;4.85;;
16900;SDS011;8567;52.540;6.434;2023-12-20T07:24:35;8.52;;;4.60;;
16900;SDS011;8567;52.540;6.434;2023-12-20T07:27:03;8.45;;;4.47;;
16900;SDS011;8567;52.540;6.434;2023-12-20T07:29:30;6.82;;;3.97;;
16900;SDS011;8567;52.540;6.434;2023-12-20T07:31:59;5.78;;;4.25;;
16900;SDS011;8567;52.540;6.434;2023-12-20T07:34:26;6.20;;;4.35;;
16900;SDS011;8567;52.540;6.434;2023-12-20T07:36:53;6.10;;;4.00;;
16900;SDS011;8567;52.540;6.434;2023-12-20T07:39:20;5.05;;;3.80;;
16900;SDS011;8567;52.540;6.434;2023-12-20T07:41:47;5.30;;;4.10;;
16900;SDS011;8567;52.540;6.434;2023-12-20T07:44:15;6.65;;;4.75;;
16900;SDS011;8567;52.540;6.434;2023-12-20T07:46:41;7.70;;;5.15;;
16900;SDS011;8567;52.540;6.434;2023-12-20T07:49:10;8.65;;;6.35;;
16900;SDS011;8567;52.540;6.434;2023-12-20T07:51:37;12.98;;;6.60;;
16900;SDS011;8567;52.540;6.434;2023-12-20T07:54:04;8.15;;;5.40;;
16900;SDS011;8567;52.540;6.434;2023-12-20T07:56:33;9.73;;;6.28;;
16900;SDS011;8567;52.540;6.434;2023-12-20T07:59:00;9.88;;;5.40;;
16900;SDS011;8567;52.540;6.434;2023-12-20T08:01:26;10.20;;;7.05;;
16900;SDS011;8567;52.540;6.434;2023-12-20T08:03:53;12.38;;;9.65;;
16900;SDS011;8567;52.540;6.434;2023-12-20T08:06:21;9.00;;;7.30;;
16900;SDS011;8567;52.540;6.434;2023-12-20T08:08:48;7.45;;;6.75;;
16900;SDS011;8567;52.540;6.434;2023-12-20T08:11:15;9.88;;;5.63;;
16900;SDS011;8567;52.540;6.434;2023-12-20T08:13:43;6.70;;;5.40;;
16900;SDS011;8567;52.540;6.434;2023-12-20T08:16:10;6.03;;;4.78;;
16900;SDS011;8567;52.540;6.434;2023-12-20T08:18:38;6.30;;;4.53;;
16900;SDS011;8567;52.540;6.434;2023-12-20T08:21:05;9.73;;;4.55;;
16900;SDS011;8567;52.540;6.434;2023-12-20T08:23:35;4.95;;;4.28;;
16900;SDS011;8567;52.540;6.434;2023-12-20T08:26:03;5.40;;;4.05;;
16900;SDS011;8567;52.540;6.434;2023-12-20T08:28:31;6.85;;;4.20;;
16900;SDS011;8567;52.540;6.434;2023-12-20T08:30:58;6.20;;;4.10;;
16900;SDS011;8567;52.540;6.434;2023-12-20T08:33:24;5.25;;;3.80;;
16900;SDS011;8567;52.540;6.434;2023-12-20T08:35:51;5.05;;;4.22;;
16900;SDS011;8567;52.540;6.434;2023-12-20T08:38:19;5.45;;;3.80;;
16900;SDS011;8567;52.540;6.434;2023-12-20T08:40:47;6.70;;;4.47;;
16900;SDS011;8567;52.540;6.434;2023-12-20T08:43:14;4.60;;;3.75;;
16900;SDS011;8567;52.540;6.434;2023-12-20T08:45:41;4.50;;;3.50;;
16900;SDS011;8567;52.540;6.434;2023-12-20T08:48:09;5.47;;;4.07;;
16900;SDS011;8567;52.540;6.434;2023-12-20T08:50:36;4.25;;;3.85;;
16900;SDS011;8567;52.540;6.434;2023-12-20T08:53:04;3.60;;;3.30;;
16900;SDS011;8567;52.540;6.434;2023-12-20T08:55:30;5.00;;;3.53;;
16900;SDS011;8567;52.540;6.434;2023-12-20T08:57:59;4.22;;;3.83;;
16900;SDS011;8567;52.540;6.434;2023-12-20T09:00:26;3.80;;;3.33;;
16900;SDS011;8567;52.540;6.434;2023-12-20T09:02:52;5.50;;;3.47;;
16900;SDS011;8567;52.540;6.434;2023-12-20T09:05:20;3.63;;;3.10;;
16900;SDS011;8567;52.540;6.434;2023-12-20T09:07:47;3.75;;;3.35;;
16900;SDS011;8567;52.540;6.434;2023-12-20T09:10:14;7.20;;;3.30;;
16900;SDS011;8567;52.540;6.434;2023-12-20T09:12:47;3.30;;;3.00;;
16900;SDS011;8567;52.540;6.434;2023-12-20T09:15:15;3.50;;;3.20;;
16900;SDS011;8567;52.540;6.434;2023-12-20T09:17:44;3.67;;;3.15;;
16900;SDS011;8567;52.540;6.434;2023-12-20T09:20:12;3.13;;;2.78;;
16900;SDS011;8567;52.540;6.434;2023-12-20T09:22:39;3.35;;;3.05;;
16900;SDS011;8567;52.540;6.434;2023-12-20T09:25:07;4.13;;;3.00;;
16900;SDS011;8567;52.540;6.434;2023-12-20T09:27:35;2.78;;;2.58;;
16900;SDS011;8567;52.540;6.434;2023-12-20T09:30:04;3.50;;;3.20;;
16900;SDS011;8567;52.540;6.434;2023-12-20T09:32:33;3.45;;;3.15;;
16900;SDS011;8567;52.540;6.434;2023-12-20T09:35:00;2.95;;;2.70;;
16900;SDS011;8567;52.540;6.434;2023-12-20T09:37:27;3.10;;;2.78;;
16900;SDS011;8567;52.540;6.434;2023-12-20T09:39:54;3.95;;;3.65;;
16900;SDS011;8567;52.540;6.434;2023-12-20T09:42:22;5.60;;;3.90;;
16900;SDS011;8567;52.540;6.434;2023-12-20T09:45:04;3.28;;;2.85;;
16900;SDS011;8567;52.540;6.434;2023-12-20T09:47:36;5.45;;;3.08;;
16900;SDS011;8567;52.540;6.434;2023-12-20T09:50:03;3.22;;;2.70;;
16900;SDS011;8567;52.540;6.434;2023-12-20T09:52:32;3.50;;;3.00;;
16900;SDS011;8567;52.540;6.434;2023-12-20T09:55:02;3.53;;;2.97;;
16900;SDS011;8567;52.540;6.434;2023-12-20T09:57:31;3.55;;;3.20;;
16900;SDS011;8567;52.540;6.434;2023-12-20T09:59:58;3.85;;;2.83;;
16900;SDS011;8567;52.540;6.434;2023-12-20T10:02:25;3.83;;;3.50;;
16900;SDS011;8567;52.540;6.434;2023-12-20T10:04:54;4.25;;;3.83;;
16900;SDS011;8567;52.540;6.434;2023-12-20T10:07:21;4.25;;;3.95;;
16900;SDS011;8567;52.540;6.434;2023-12-20T10:09:49;4.82;;;4.50;;
16900;SDS011;8567;52.540;6.434;2023-12-20T10:12:20;5.38;;;4.97;;
16900;SDS011;8567;52.540;6.434;2023-12-20T10:14:47;7.10;;;6.60;;
16900;SDS011;8567;52.540;6.434;2023-12-20T10:17:13;7.45;;;7.00;;
16900;SDS011;8567;52.540;6.434;2023-12-20T10:19:42;8.82;;;8.23;;
16900;SDS011;8567;52.540;6.434;2023-12-20T10:22:11;8.63;;;8.02;;
16900;SDS011;8567;52.540;6.434;2023-12-20T10:24:38;8.85;;;8.32;;
16900;SDS011;8567;52.540;6.434;2023-12-20T10:27:07;10.98;;;10.38;;
16900;SDS011;8567;52.540;6.434;2023-12-20T10:29:35;13.13;;;12.38;;
16900;SDS011;8567;52.540;6.434;2023-12-20T10:32:21;16.75;;;15.75;;
16900;SDS011;8567;52.540;6.434;2023-12-20T10:34:49;16.17;;;15.27;;
16900;SDS011;8567;52.540;6.434;2023-12-20T10:37:18;13.30;;;12.60;;
16900;SDS011;8567;52.540;6.434;2023-12-20T10:39:45;12.45;;;11.65;;
16900;SDS011;8567;52.540;6.434;2023-12-20T10:42:15;10.70;;;10.05;;
16900;SDS011;8567;52.540;6.434;2023-12-20T10:44:43;9.93;;;9.43;;
16900;SDS011;8567;52.540;6.434;2023-12-20T10:47:10;11.10;;;10.50;;
16900;SDS011;8567;52.540;6.434;2023-12-20T10:49:39;9.32;;;8.73;;
16900;SDS011;8567;52.540;6.434;2023-12-20T10:52:09;9.98;;;9.38;;
16900;SDS011;8567;52.540;6.434;2023-12-20T10:54:40;10.27;;;9.68;;
16900;SDS011;8567;52.540;6.434;2023-12-20T10:57:08;10.63;;;10.02;;
16900;SDS011;8567;52.540;6.434;2023-12-20T10:59:36;11.00;;;10.30;;
16900;SDS011;8567;52.540;6.434;2023-12-20T11:02:02;9.85;;;9.25;;
16900;SDS011;8567;52.540;6.434;2023-12-20T11:04:35;10.65;;;10.05;;
16900;SDS011;8567;52.540;6.434;2023-12-20T11:07:10;10.18;;;9.48;;
16900;SDS011;8567;52.540;6.434;2023-12-20T11:09:47;10.73;;;10.13;;
16900;SDS011;8567;52.540;6.434;2023-12-20T11:12:22;10.73;;;10.13;;
16900;SDS011;8567;52.540;6.434;2023-12-20T11:14:58;10.88;;;10.27;;
16900;SDS011;8567;52.540;6.434;2023-12-20T11:17:29;11.80;;;11.15;;
16900;SDS011;8567;52.540;6.434;2023-12-20T11:20:07;11.02;;;10.45;;
16900;SDS011;8567;52.540;6.434;2023-12-20T11:22:37;11.15;;;10.55;;
16900;SDS011;8567;52.540;6.434;2023-12-20T11:25:09;11.45;;;10.75;;
16900;SDS011;8567;52.540;6.434;2023-12-20T11:27:40;9.90;;;9.40;;
16900;SDS011;8567;52.540;6.434;2023-12-20T11:30:09;11.15;;;10.50;;
16900;SDS011;8567;52.540;6.434;2023-12-20T11:32:37;11.00;;;10.40;;
16900;SDS011;8567;52.540;6.434;2023-12-20T11:35:18;10.73;;;10.07;;
16900;SDS011;8567;52.540;6.434;2023-12-20T11:37:46;10.52;;;9.93;;
16900;SDS011;8567;52.540;6.434;2023-12-20T11:40:15;10.55;;;9.95;;
16900;SDS011;8567;52.540;6.434;2023-12-20T11:42:43;9.23;;;8.73;;
16900;SDS011;8567;52.540;6.434;2023-12-20T11:45:13;9.77;;;9.27;;
16900;SDS011;8567;52.540;6.434;2023-12-20T11:47:42;9.82;;;9.32;;
16900;SDS011;8567;52.540;6.434;2023-12-20T11:50:10;9.68;;;9.18;;
16900;SDS011;8567;52.540;6.434;2023-12-20T11:52:37;9.52;;;9.02;;
16900;SDS011;8567;52.540;6.434;2023-12-20T11:55:04;9.18;;;8.68;;
16900;SDS011;8567;52.540;6.434;2023-12-20T11:57:33;8.85;;;8.40;;
16900;SDS011;8567;52.540;6.434;2023-12-20T12:00:00;9.13;;;8.63;;
16900;SDS011;8567;52.540;6.434;2023-12-20T12:02:27;8.80;;;8.30;;
16900;SDS011;8567;52.540;6.434;2023-12-20T12:04:54;8.30;;;7.88;;
16900;SDS011;8567;52.540;6.434;2023-12-20T12:07:21;9.02;;;8.52;;
16900;SDS011;8567;52.540;6.434;2023-12-20T12:09:48;8.82;;;8.35;;
16900;SDS011;8567;52.540;6.434;2023-12-20T12:12:15;8.13;;;7.65;;
16900;SDS011;8567;52.540;6.434;2023-12-20T12:14:44;8.15;;;7.75;;
16900;SDS011;8567;52.540;6.434;2023-12-20T12:17:11;8.77;;;8.27;;
16900;SDS011;8567;52.540;6.434;2023-12-20T12:19:39;8.50;;;8.10;;
16900;SDS011;8567;52.540;6.434;2023-12-20T12:22:07;7.70;;;7.20;;
16900;SDS011;8567;52.540;6.434;2023-12-20T12:24:37;7.72;;;7.32;;
16900;SDS011;8567;52.540;6.434;2023-12-20T12:27:05;8.00;;;7.60;;
16900;SDS011;8567;52.540;6.434;2023-12-20T12:29:33;7.95;;;7.55;;
16900;SDS011;8567;52.540;6.434;2023-12-20T12:32:04;8.80;;;8.32;;
16900;SDS011;8567;52.540;6.434;2023-12-20T12:34:31;8.20;;;7.80;;
16900;SDS011;8567;52.540;6.434;2023-12-20T12:36:59;8.30;;;7.80;;
16900;SDS011;8567;52.540;6.434;2023-12-20T12:39:26;8.02;;;7.63;;
16900;SDS011;8567;52.540;6.434;2023-12-20T12:41:55;7.45;;;7.07;;
16900;SDS011;8567;52.540;6.434;2023-12-20T12:44:22;8.15;;;7.75;;
16900;SDS011;8567;52.540;6.434;2023-12-20T12:46:50;7.72;;;7.35;;
16900;SDS011;8567;52.540;6.434;2023-12-20T12:49:20;8.65;;;8.23;;
16900;SDS011;8567;52.540;6.434;2023-12-20T12:51:48;8.18;;;7.78;;
16900;SDS011;8567;52.540;6.434;2023-12-20T12:54:16;8.13;;;7.72;;
16900;SDS011;8567;52.540;6.434;2023-12-20T12:56:43;7.35;;;7.05;;
16900;SDS011;8567;52.540;6.434;2023-12-20T12:59:12;8.20;;;7.80;;
16900;SDS011;8567;52.540;6.434;2023-12-20T13:01:39;7.28;;;6.97;;
16900;SDS011;8567;52.540;6.434;2023-12-20T13:04:06;7.43;;;7.10;;
16900;SDS011;8567;52.540;6.434;2023-12-20T13:06:37;7.95;;;7.47;;
16900;SDS011;8567;52.540;6.434;2023-12-20T13:09:04;7.60;;;7.20;;
16900;SDS011;8567;52.540;6.434;2023-12-20T13:11:31;7.88;;;7.47;;
16900;SDS011;8567;52.540;6.434;2023-12-20T13:13:58;7.97;;;7.57;;
16900;SDS011;8567;52.540;6.434;2023-12-20T13:16:25;7.28;;;6.88;;
16900;SDS011;8567;52.540;6.434;2023-12-20T13:18:52;6.93;;;6.55;;
16900;SDS011;8567;52.540;6.434;2023-12-20T13:21:19;7.03;;;6.72;;
16900;SDS011;8567;52.540;6.434;2023-12-20T13:23:47;7.20;;;6.88;;
16900;SDS011;8567;52.540;6.434;2023-12-20T13:26:14;7.30;;;6.90;;
16900;SDS011;8567;52.540;6.434;2023-12-20T13:28:41;6.70;;;6.32;;
16900;SDS011;8567;52.540;6.434;2023-12-20T13:31:08;7.05;;;6.65;;
16900;SDS011;8567;52.540;6.434;2023-12-20T13:33:35;6.93;;;6.53;;
16900;SDS011;8567;52.540;6.434;2023-12-20T13:36:03;6.40;;;6.10;;
16900;SDS011;8567;52.540;6.434;2023-12-20T13:38:31;6.75;;;6.45;;
16900;SDS011;8567;52.540;6.434;2023-12-20T13:40:59;6.60;;;6.30;;
16900;SDS011;8567;52.540;6.434;2023-12-20T13:43:26;6.10;;;5.80;;
16900;SDS011;8567;52.540;6.434;2023-12-20T13:45:53;6.10;;;5.80;;
16900;SDS011;8567;52.540;6.434;2023-12-20T13:48:21;6.03;;;5.72;;
16900;SDS011;8567;52.540;6.434;2023-12-20T13:50:48;6.15;;;5.85;;
16900;SDS011;8567;52.540;6.434;2023-12-20T13:53:15;6.32;;;6.03;;
16900;SDS011;8567;52.540;6.434;2023-12-20T13:55:44;6.57;;;6.20;;
16900;SDS011;8567;52.540;6.434;2023-12-20T13:58:14;5.88;;;5.57;;
16900;SDS011;8567;52.540;6.434;2023-12-20T14:00:40;6.22;;;5.93;;
16900;SDS011;8567;52.540;6.434;2023-12-20T14:03:07;6.43;;;6.13;;
16900;SDS011;8567;52.540;6.434;2023-12-20T14:05:35;6.15;;;5.85;;
16900;SDS011;8567;52.540;6.434;2023-12-20T14:08:01;7.03;;;6.63;;
16900;SDS011;8567;52.540;6.434;2023-12-20T14:10:28;6.80;;;6.40;;
16900;SDS011;8567;52.540;6.434;2023-12-20T14:12:55;7.45;;;7.05;;
16900;SDS011;8567;52.540;6.434;2023-12-20T14:15:24;7.45;;;6.97;;
16900;SDS011;8567;52.540;6.434;2023-12-20T14:17:51;7.22;;;6.82;;
16900;SDS011;8567;52.540;6.434;2023-12-20T14:20:19;6.90;;;6.60;;
16900;SDS011;8567;52.540;6.434;2023-12-20T14:22:46;6.82;;;6.50;;
16900;SDS011;8567;52.540;6.434;2023-12-20T14:25:13;6.68;;;6.38;;
16900;SDS011;8567;52.540;6.434;2023-12-20T14:27:41;6.75;;;6.45;;
16900;SDS011;8567;52.540;6.434;2023-12-20T14:30:09;7.55;;;7.15;;
16900;SDS011;8567;52.540;6.434;2023-12-20T14:32:40;7.82;;;7.43;;
16900;SDS011;8567;52.540;6.434;2023-12-20T14:35:07;7.90;;;7.50;;
16900;SDS011;8567;52.540;6.434;2023-12-20T14:37:34;7.93;;;7.43;;
16900;SDS011;8567;52.540;6.434;2023-12-20T14:40:05;7.55;;;7.18;;
16900;SDS011;8567;52.540;6.434;2023-12-20T14:42:35;7.53;;;7.13;;
16900;SDS011;8567;52.540;6.434;2023-12-20T14:45:03;7.93;;;7.55;;
16900;SDS011;8567;52.540;6.434;2023-12-20T14:47:30;8.95;;;8.48;;
16900;SDS011;8567;52.540;6.434;2023-12-20T14:49:59;8.18;;;7.78;;
16900;SDS011;8567;52.540;6.434;2023-12-20T14:52:25;8.35;;;7.95;;
16900;SDS011;8567;52.540;6.434;2023-12-20T14:54:52;8.45;;;8.00;;
16900;SDS011;8567;52.540;6.434;2023-12-20T14:57:19;9.18;;;8.73;;
16900;SDS011;8567;52.540;6.434;2023-12-20T14:59:46;8.18;;;7.78;;
16900;SDS011;8567;52.540;6.434;2023-12-20T15:02:13;8.68;;;8.27;;
16900;SDS011;8567;52.540;6.434;2023-12-20T15:04:40;8.30;;;7.90;;